Time;durP1;ratioP1;P1;durP2;ratioP2;P2;SDS_P1;SDS_P2;PMS_P1;PMS_P2;Temp;Humidity;BMP_temperature;BMP_pressure;BME280_temperature;BME280_humidity;BME280_pressure;Samples;Min_cycle;Max_cycle;Signal;HPM_P1;HPM_P2
2022/06/29 00:01:15;;;;;;;6.72;2.65;;;;;;;17.82;65.16;99905.09;5032857;28;20112;-57
2022/06/29 00:03:59;;;;;;;6.45;3.20;;;;;;;17.83;65.23;99903.31;5038220;28;20564;-57
2022/06/29 00:06:42;;;;;;;8.40;3.55;;;;;;;17.82;65.08;99902.47;5053218;28;20124;-57
2022/06/29 00:09:26;;;;;;;4.75;2.90;;;;;;;17.83;65.00;99912.03;5056673;28;20047;-56
2022/06/29 00:12:11;;;;;;;5.90;3.17;;;;;;;17.84;64.93;99910.28;5056320;28;20167;-55
2022/06/29 00:14:55;;;;;;;6.35;3.10;;;;;;;17.83;65.13;99901.56;5056669;28;20416;-55
2022/06/29 00:17:40;;;;;;;6.22;2.80;;;;;;;17.83;65.18;99905.94;5056907;28;20136;-56
2022/06/29 00:20:24;;;;;;;5.47;2.80;;;;;;;17.83;65.30;99896.31;5041073;28;20095;-56
2022/06/29 00:23:10;;;;;;;5.68;2.97;;;;;;;17.83;65.24;99898.06;5056359;28;20044;-57
2022/06/29 00:25:54;;;;;;;4.38;2.92;;;;;;;17.81;65.37;99891.09;5041573;28;20404;-56
2022/06/29 00:28:38;;;;;;;6.28;2.90;;;;;;;17.81;65.30;99888.47;5041158;28;20440;-55
2022/06/29 00:31:22;;;;;;;5.47;2.95;;;;;;;17.83;65.37;99890.22;5056048;28;20099;-55
2022/06/29 00:34:06;;;;;;;4.95;2.85;;;;;;;17.83;65.45;99896.31;5056039;28;20518;-55
2022/06/29 00:36:50;;;;;;;3.97;2.85;;;;;;;17.81;65.34;99895.50;5056374;28;20056;-55
2022/06/29 00:39:34;;;;;;;10.00;2.97;;;;;;;17.81;65.36;99898.97;5056058;28;20043;-55
2022/06/29 00:42:17;;;;;;;5.25;2.75;;;;;;;17.80;65.39;99899.84;5040879;28;20056;-55
2022/06/29 00:45:02;;;;;;;4.43;2.75;;;;;;;17.80;65.60;99896.38;5055988;28;20087;-56
2022/06/29 00:47:46;;;;;;;4.10;2.15;;;;;;;17.79;65.34;99887.63;5055743;28;20051;-57
2022/06/29 00:50:32;;;;;;;5.07;2.55;;;;;;;17.80;65.44;99888.53;5056290;28;20395;-56
2022/06/29 00:53:19;;;;;;;12.10;2.90;;;;;;;17.80;65.40;99884.13;5041372;28;20048;-56
2022/06/29 00:56:07;;;;;;;4.22;2.38;;;;;;;17.79;65.45;99884.16;5040986;28;20088;-55
2022/06/29 00:58:54;;;;;;;5.55;2.67;;;;;;;17.78;65.52;99872.81;5040907;28;20040;-56
2022/06/29 01:01:39;;;;;;;5.10;2.85;;;;;;;17.78;65.45;99878.03;5040756;28;20140;-56
2022/06/29 01:04:24;;;;;;;4.25;2.78;;;;;;;17.78;65.71;99872.81;5040685;28;20091;-57
2022/06/29 01:07:09;;;;;;;4.90;2.85;;;;;;;17.78;65.52;99875.41;5055903;28;20044;-55
2022/06/29 01:09:53;;;;;;;7.03;2.58;;;;;;;17.78;65.57;99871.94;5055864;28;20052;-55
2022/06/29 01:12:37;;;;;;;4.10;2.72;;;;;;;17.79;65.60;99873.69;5055619;28;20133;-55
2022/06/29 01:15:21;;;;;;;4.72;2.35;;;;;;;17.79;65.61;99863.19;5040287;28;20074;-55
2022/06/29 01:18:05;;;;;;;5.20;2.75;;;;;;;17.76;65.67;99861.47;5040054;28;20087;-55
2022/06/29 01:20:49;;;;;;;5.47;2.75;;;;;;;17.77;65.75;99864.97;5055384;28;20044;-55
2022/06/29 01:23:33;;;;;;;3.45;2.40;;;;;;;17.77;65.78;99859.72;5055687;28;20455;-56
2022/06/29 01:26:18;;;;;;;4.45;2.53;;;;;;;17.77;65.55;99867.59;5055079;28;20090;-55
2022/06/29 01:29:02;;;;;;;3.47;2.50;;;;;;;17.77;65.46;99862.34;5054905;28;20523;-55
2022/06/29 01:31:46;;;;;;;4.13;2.80;;;;;;;17.76;65.69;99861.47;5040149;28;20416;-56
2022/06/29 01:34:31;;;;;;;4.95;2.55;;;;;;;17.75;65.51;99862.34;5055013;28;20101;-55
2022/06/29 01:37:18;;;;;;;4.53;2.45;;;;;;;17.75;65.32;99859.75;5055290;28;20074;-57
2022/06/29 01:40:03;;;;;;;3.47;2.30;;;;;;;17.75;65.58;99859.75;5039506;28;20103;-56
2022/06/29 01:42:48;;;;;;;5.68;2.28;;;;;;;17.76;65.48;99863.25;5039799;28;20072;-55
2022/06/29 01:45:32;;;;;;;5.70;2.80;;;;;;;17.77;65.81;99860.59;5039854;28;20580;-57
2022/06/29 01:48:16;;;;;;;6.80;3.00;;;;;;;17.76;65.57;99851.00;5040292;28;20198;-57
2022/06/29 01:51:00;;;;;;;;;;;;;;;17.75;65.48;99849.25;5040072;28;20052;-57
2022/06/29 01:53:47;;;;;;;5.28;3.13;;;;;;;17.74;65.74;99841.44;5055208;28;19919;-58
2022/06/29 01:56:31;;;;;;;3.47;2.70;;;;;;;17.74;65.49;99846.66;5054634;28;20044;-57
2022/06/29 01:59:14;;;;;;;3.90;2.40;;;;;;;17.73;65.58;99840.59;5054798;28;20098;-55
2022/06/29 02:01:58;;;;;;;4.38;2.55;;;;;;;17.73;65.71;99839.69;5054458;28;20056;-56
2022/06/29 02:04:43;;;;;;;10.13;2.78;;;;;;;17.73;65.51;99840.59;5054355;28;20136;-55
2022/06/29 02:07:27;;;;;;;7.50;2.72;;;;;;;17.73;65.60;99837.09;5039178;28;20523;-55
2022/06/29 02:10:13;;;;;;;6.00;2.55;;;;;;;17.72;65.78;99835.34;5054693;28;20060;-56
2022/06/29 02:12:57;;;;;;;3.30;2.40;;;;;;;17.71;65.50;99828.38;5054508;28;20461;-56
2022/06/29 02:15:41;;;;;;;3.70;2.38;;;;;;;17.71;65.66;99831.88;5054821;28;20404;-56
2022/06/29 02:18:25;;;;;;;11.82;3.08;;;;;;;17.71;65.54;99825.75;5054392;28;20051;-55
2022/06/29 02:21:10;;;;;;;4.40;2.83;;;;;;;17.70;65.66;99822.28;5054339;28;20063;-55
2022/06/29 02:23:54;;;;;;;8.13;2.72;;;;;;;17.70;65.95;99822.28;5039460;28;20056;-55
2022/06/29 02:26:38;;;;;;;3.78;2.47;;;;;;;17.70;65.67;99826.63;5054496;28;20132;-56
2022/06/29 02:29:22;;;;;;;3.42;2.72;;;;;;;17.70;65.72;99824.03;5053624;28;20142;-55
2022/06/29 02:35:09;;;;;;;5.38;2.65;;;;;;;17.69;65.53;99817.03;5053523;28;20114;-55
2022/06/29 02:37:53;;;;;;;4.88;2.47;;;;;;;17.67;65.52;99817.09;5053820;28;20052;-55
2022/06/29 02:40:37;;;;;;;3.17;2.38;;;;;;;17.66;65.58;99815.34;5053369;28;20511;-57
2022/06/29 02:43:23;;;;;;;4.05;2.55;;;;;;;17.65;65.54;99813.63;5053783;28;20056;-56
2022/06/29 02:46:10;;;;;;;4.30;2.70;;;;;;;17.64;65.51;99815.41;5038730;28;20099;-55
2022/06/29 02:48:55;;;;;;;5.47;2.60;;;;;;;17.64;65.50;99820.63;5038891;28;20546;-55
2022/06/29 02:51:38;;;;;;;7.15;2.33;;;;;;;17.64;65.45;99819.75;5053413;28;20044;-57
2022/06/29 02:54:23;;;;;;;2.97;2.47;;;;;;;17.63;65.54;99815.41;5053304;28;20056;-56
2022/06/29 02:57:07;;;;;;;4.22;2.55;;;;;;;17.63;65.37;99818.91;5053425;28;20163;-57
2022/06/29 02:59:53;;;;;;;4.40;2.70;;;;;;;17.62;65.64;99809.31;5053428;28;20127;-55
2022/06/29 03:02:37;;;;;;;2.85;2.30;;;;;;;17.62;65.68;99801.44;5053637;28;20133;-56
2022/06/29 03:05:21;;;;;;;3.35;2.40;;;;;;;17.63;65.55;99803.19;5053349;28;20048;-56
2022/06/29 03:08:05;;;;;;;3.88;2.53;;;;;;;17.61;65.36;99797.09;5053712;28;20411;-55
2022/06/29 03:10:49;;;;;;;4.18;3.03;;;;;;;17.61;65.71;99797.09;5053278;28;20094;-56
2022/06/29 03:13:33;;;;;;;5.85;2.20;;;;;;;17.61;65.63;99797.09;5053216;28;20412;-55
2022/06/29 03:16:18;;;;;;;3.63;2.45;;;;;;;17.62;65.61;99796.22;5053743;28;20124;-56
2022/06/29 03:19:02;;;;;;;4.47;2.65;;;;;;;17.61;65.58;99804.06;5038160;28;20132;-55
2022/06/29 03:21:46;;;;;;;5.40;3.00;;;;;;;17.61;65.75;99796.22;5053217;28;20124;-55
2022/06/29 03:24:31;;;;;;;4.43;2.35;;;;;;;17.60;65.56;99799.72;5053123;28;20099;-55
2022/06/29 03:27:15;;;;;;;4.40;2.65;;;;;;;17.57;65.47;99791.94;5038514;28;20061;-55
2022/06/29 03:29:59;;;;;;;5.38;2.55;;;;;;;17.58;65.39;99791.06;5052815;28;20134;-55
2022/06/29 03:32:42;;;;;;;3.72;2.38;;;;;;;17.56;65.82;99792.81;5053065;28;20044;-56
2022/06/29 03:35:26;;;;;;;4.07;2.67;;;;;;;17.56;65.54;99793.69;5052826;28;20052;-55
2022/06/29 03:38:10;;;;;;;3.25;2.42;;;;;;;17.56;65.63;99792.81;5053478;28;20098;-56
2022/06/29 03:40:54;;;;;;;3.78;2.58;;;;;;;17.55;65.59;99786.72;5052849;28;20113;-57
2022/06/29 03:43:38;;;;;;;3.55;2.25;;;;;;;17.54;65.55;99779.72;5057443;28;20515;-57
2022/06/29 03:46:22;;;;;;;4.32;2.20;;;;;;;17.55;65.61;99778.00;5057192;28;20503;-58
2022/06/29 03:49:06;;;;;;;5.55;2.50;;;;;;;17.54;65.52;99771.88;5057046;28;20057;-55
2022/06/29 03:51:49;;;;;;;3.03;2.30;;;;;;;17.54;65.70;99771.88;5056894;28;20048;-55
2022/06/29 03:54:33;;;;;;;6.18;2.50;;;;;;;17.54;65.56;99778.88;5057241;28;20048;-56
2022/06/29 03:57:17;;;;;;;3.25;2.28;;;;;;;17.54;65.69;99782.34;5041944;28;20051;-56
2022/06/29 04:00:03;;;;;;;3.20;2.70;;;;;;;17.54;65.56;99784.13;5056808;28;20048;-55
2022/06/29 04:02:47;;;;;;;2.80;2.20;;;;;;;17.53;65.52;99777.16;5036057;28;20061;-55
2022/06/29 04:05:31;;;;;;;3.15;2.10;;;;;;;17.53;65.63;99774.53;5036447;28;20091;-55
2022/06/29 04:08:16;;;;;;;3.17;2.40;;;;;;;17.53;65.41;99777.16;5037184;28;20103;-56
2022/06/29 04:11:00;;;;;;;3.90;2.80;;;;;;;17.53;65.51;99780.63;5036938;28;20045;-55
2022/06/29 04:13:44;;;;;;;3.80;2.30;;;;;;;17.50;65.43;99775.47;5036018;28;20056;-57
2022/06/29 04:16:28;;;;;;;3.47;2.08;;;;;;;17.50;65.47;99772.84;5036391;28;20079;-57
2022/06/29 04:19:12;;;;;;;2.60;2.15;;;;;;;17.52;65.56;99768.41;5036550;28;20052;-55
2022/06/29 04:21:56;;;;;;;8.85;2.45;;;;;;;17.52;65.62;99773.66;5036830;28;20115;-56
2022/06/29 04:24:39;;;;;;;2.97;2.17;;;;;;;17.52;65.34;99765.78;5036543;28;20048;-56
2022/06/29 04:27:24;;;;;;;4.55;2.40;;;;;;;17.52;65.23;99773.66;5036664;28;20412;-56
2022/06/29 04:30:08;;;;;;;2.85;2.20;;;;;;;17.51;65.48;99769.34;5036068;28;20099;-55
2022/06/29 04:32:52;;;;;;;5.55;2.10;;;;;;;17.50;65.26;99770.22;5035676;28;20397;-56
2022/06/29 04:35:36;;;;;;;5.00;2.15;;;;;;;17.49;65.23;99769.34;5036652;28;20072;-57
2022/06/29 04:38:20;;;;;;;3.97;1.95;;;;;;;17.49;65.34;99773.72;5036488;28;20196;-57
2022/06/29 04:41:05;;;;;;;3.97;2.38;;;;;;;17.47;65.34;99762.41;5035796;28;20044;-57
2022/06/29 04:43:49;;;;;;;4.05;2.25;;;;;;;17.46;65.00;99763.28;5036104;28;20136;-57
2022/06/29 04:46:33;;;;;;;;;;;;;;;17.44;64.75;99767.69;5035284;28;20052;-56
2022/06/29 04:49:17;;;;;;;3.70;2.13;;;;;;;17.42;65.13;99767.72;5035665;28;20394;-57
2022/06/29 04:52:01;;;;;;;4.43;2.17;;;;;;;17.41;64.72;99766.00;5036134;28;20570;-57
2022/06/29 04:54:45;;;;;;;8.48;2.78;;;;;;;17.42;65.07;99777.31;5035388;28;20095;-57
2022/06/29 04:57:28;;;;;;;4.10;2.30;;;;;;;17.40;64.81;99774.75;5034690;28;20048;-58
2022/06/29 05:00:13;;;;;;;3.58;2.10;;;;;;;17.41;64.75;99778.22;5035493;28;20045;-57
2022/06/29 05:02:57;;;;;;;;;;;;;;;17.39;64.62;99777.38;5050682;28;20060;-56
2022/06/29 05:05:41;;;;;;;3.03;2.20;;;;;;;17.40;64.96;99773.88;5055619;28;19961;-56
2022/06/29 05:08:25;;;;;;;3.38;2.50;;;;;;;17.41;64.81;99770.34;5055757;28;20048;-57
2022/06/29 05:11:09;;;;;;;4.25;2.75;;;;;;;17.42;65.02;99769.47;5055401;28;20156;-57
2022/06/29 05:13:53;;;;;;;;;;;;;;;17.40;64.79;99766.00;5041149;28;20175;-57
2022/06/29 05:16:39;;;;;;;2.95;2.47;;;;;;;17.39;65.05;99765.16;5055018;28;19924;-57
2022/06/29 05:19:23;;;;;;;3.38;3.08;;;;;;;17.40;64.80;99764.28;5040527;28;20416;-57
2022/06/29 05:22:07;;;;;;;6.90;3.70;;;;;;;17.42;64.97;99769.47;5040357;28;20534;-56
2022/06/29 05:24:54;;;;;;;8.27;3.40;;;;;;;17.42;64.55;99753.75;5040040;28;20048;-57
2022/06/29 05:27:38;;;;;;;4.90;3.55;;;;;;;17.42;64.65;99764.22;5040111;28;20472;-57
2022/06/29 05:30:22;;;;;;;4.30;3.85;;;;;;;17.43;64.58;99766.84;5055329;28;20450;-56
2022/06/29 05:33:06;;;;;;;5.25;4.05;;;;;;;17.44;64.54;99767.69;5054691;28;20052;-56
2022/06/29 05:35:51;;;;;;;6.30;4.28;;;;;;;17.45;64.65;99767.66;5054670;28;20052;-55
2022/06/29 05:38:36;;;;;;;5.55;4.32;;;;;;;17.46;64.71;99761.53;5054955;28;20048;-57
2022/06/29 05:41:20;;;;;;;4.70;3.83;;;;;;;17.48;64.78;99766.75;5039512;28;20052;-56
2022/06/29 05:44:04;;;;;;;5.55;4.32;;;;;;;17.48;64.74;99762.38;5054717;28;20051;-56
2022/06/29 05:46:48;;;;;;;5.80;4.00;;;;;;;17.49;64.38;99764.09;5055070;28;20150;-56
2022/06/29 05:49:32;;;;;;;5.25;3.80;;;;;;;17.52;64.76;99768.41;5054703;28;20520;-56
2022/06/29 05:52:17;;;;;;;5.20;4.35;;;;;;;17.54;64.51;99765.78;5039942;28;20114;-56
2022/06/29 05:55:01;;;;;;;;;;;;;;;17.53;64.52;99762.28;5055585;28;20519;-55
2022/06/29 05:57:45;;;;;;;6.05;3.50;;;;;;;17.53;64.69;99767.53;5040055;28;19923;-55
2022/06/29 06:00:29;;;;;;;9.95;3.90;;;;;;;17.55;64.54;99759.66;5054685;28;20132;-56
2022/06/29 06:03:13;;;;;;;4.20;3.30;;;;;;;17.56;64.57;99750.91;5055135;28;20109;-55
2022/06/29 06:05:57;;;;;;;5.20;3.42;;;;;;;17.57;64.54;99761.34;5053255;28;20099;-56
2022/06/29 06:08:41;;;;;;;6.20;3.08;;;;;;;17.59;64.46;99764.81;5054476;28;20072;-57
2022/06/29 06:11:25;;;;;;;8.95;3.75;;;;;;;17.60;64.67;99760.41;5039710;28;20043;-55
2022/06/29 06:14:09;;;;;;;4.70;3.20;;;;;;;17.60;64.63;99761.31;5054319;28;20076;-55
2022/06/29 06:16:53;;;;;;;4.25;3.33;;;;;;;17.60;64.73;99761.31;5039315;28;20052;-56
2022/06/29 06:19:37;;;;;;;4.20;3.45;;;;;;;17.61;64.88;99760.41;5053734;28;20051;-55
2022/06/29 06:22:21;;;;;;;6.70;2.72;;;;;;;17.61;64.59;99770.00;5039004;28;20064;-56
2022/06/29 06:25:05;;;;;;;9.38;3.42;;;;;;;17.61;64.72;99762.16;5053735;28;20059;-55
2022/06/29 06:27:50;;;;;;;6.43;3.00;;;;;;;17.62;64.64;99759.53;5053839;28;20094;-55
2022/06/29 06:30:34;;;;;;;5.43;3.40;;;;;;;17.64;64.74;99772.59;5053515;28;20047;-55
2022/06/29 06:33:18;;;;;;;6.32;2.90;;;;;;;17.63;64.84;99763.88;5053552;28;20098;-55
2022/06/29 06:36:02;;;;;;;5.45;2.42;;;;;;;17.64;64.63;99757.75;5038979;28;20043;-57
2022/06/29 06:38:46;;;;;;;6.32;2.90;;;;;;;17.65;65.04;99761.22;5053558;28;20059;-57
2022/06/29 06:41:30;;;;;;;8.55;2.83;;;;;;;17.65;64.61;99758.59;5053314;28;20048;-56
2022/06/29 06:44:14;;;;;;;7.60;3.20;;;;;;;17.65;64.72;99754.22;5053813;28;20044;-57
2022/06/29 06:46:58;;;;;;;5.30;2.95;;;;;;;17.64;64.92;99747.25;5038796;28;20415;-57
2022/06/29 06:49:41;;;;;;;7.45;3.35;;;;;;;17.65;64.65;99754.22;5054018;28;20388;-57
2022/06/29 06:52:26;;;;;;;5.47;2.60;;;;;;;17.64;64.55;99755.13;5053220;28;20431;-56
2022/06/29 06:55:10;;;;;;;7.15;2.90;;;;;;;17.63;64.64;99756.00;5053426;28;20090;-56
2022/06/29 06:57:53;;;;;;;5.50;2.85;;;;;;;17.64;64.70;99756.88;5053573;28;20048;-55
2022/06/29 07:00:38;;;;;;;3.75;2.40;;;;;;;17.65;64.79;99756.84;5053525;28;20087;-55
2022/06/29 07:03:22;;;;;;;3.13;2.22;;;;;;;17.66;64.67;99757.72;5037914;28;20060;-57
2022/06/29 07:06:08;;;;;;;4.07;2.50;;;;;;;17.69;64.53;99759.41;5053319;28;20527;-56
2022/06/29 07:08:54;;;;;;;3.35;2.20;;;;;;;17.69;64.59;99759.41;5038314;28;20151;-55
2022/06/29 07:11:38;;;;;;;4.78;2.40;;;;;;;17.70;64.42;99746.28;5053479;28;20048;-58
2022/06/29 07:14:22;;;;;;;3.97;2.40;;;;;;;17.72;64.61;99759.34;5053240;28;20091;-57
2022/06/29 07:17:06;;;;;;;3.88;2.25;;;;;;;17.73;64.59;99754.09;5053337;28;20523;-57
2022/06/29 07:19:50;;;;;;;3.58;2.42;;;;;;;17.74;64.60;99758.44;5052837;28;20114;-57
2022/06/29 07:22:34;;;;;;;;;;;;;;;17.75;64.73;99751.44;5053766;28;20040;-57
2022/06/29 07:25:18;;;;;;;2.80;1.60;;;;;;;17.75;64.83;99757.53;5053012;28;19919;-57
2022/06/29 07:28:02;;;;;;;5.40;2.65;;;;;;;17.76;64.80;99758.41;5053041;28;20099;-57
2022/06/29 07:30:46;;;;;;;4.90;2.55;;;;;;;17.77;64.80;99766.22;5052959;28;20486;-56
2022/06/29 07:33:30;;;;;;;5.68;2.38;;;;;;;17.79;64.54;99766.22;5053338;28;20094;-56
2022/06/29 07:36:14;;;;;;;5.07;2.63;;;;;;;17.79;64.78;99767.06;5052791;28;20079;-57
2022/06/29 07:38:58;;;;;;;2.97;1.98;;;;;;;17.80;64.75;99760.09;5038255;28;20047;-57
2022/06/29 07:41:42;;;;;;;6.03;2.10;;;;;;;17.81;65.09;99764.44;5038216;28;20079;-57
2022/06/29 07:44:28;;;;;;;3.92;2.20;;;;;;;17.81;65.03;99769.69;5052703;28;20217;-56
2022/06/29 07:47:12;;;;;;;7.68;2.60;;;;;;;17.81;64.72;99775.78;5052876;28;20577;-57
2022/06/29 07:49:56;;;;;;;6.15;2.97;;;;;;;17.81;64.79;99767.91;5053203;28;20102;-57
2022/06/29 07:52:42;;;;;;;5.43;1.98;;;;;;;17.81;65.21;99760.06;5052923;28;20527;-57
2022/06/29 07:55:26;;;;;;;7.45;2.88;;;;;;;17.83;64.71;99761.78;5037826;28;20110;-57
2022/06/29 07:58:14;;;;;;;5.88;2.28;;;;;;;17.83;64.82;99761.78;5053171;28;20128;-57
2022/06/29 08:00:58;;;;;;;3.97;2.85;;;;;;;17.83;64.90;99760.00;5037455;28;20067;-56
2022/06/29 08:03:42;;;;;;;5.55;2.70;;;;;;;17.84;64.93;99759.13;5052491;28;20130;-56
2022/06/29 08:06:26;;;;;;;6.97;2.95;;;;;;;17.84;65.02;99753.03;5052872;28;20056;-56
2022/06/29 08:09:10;;;;;;;8.05;3.20;;;;;;;17.85;65.05;99755.59;5053181;28;20510;-55
2022/06/29 08:11:54;;;;;;;5.65;2.53;;;;;;;17.86;64.88;99752.09;5052863;28;20051;-56
2022/06/29 08:14:38;;;;;;;8.50;3.15;;;;;;;17.88;65.08;99745.06;5052632;28;20044;-55
2022/06/29 08:17:22;;;;;;;;;;;;;;;17.90;64.92;99752.94;5053056;28;20102;-56
2022/06/29 08:20:06;;;;;;;7.88;3.53;;;;;;;17.91;65.06;99758.13;5052275;28;19928;-56
2022/06/29 08:22:50;;;;;;;4.72;2.83;;;;;;;17.93;65.02;99747.59;5052938;28;20182;-55
2022/06/29 08:25:34;;;;;;;7.43;3.05;;;;;;;17.95;64.75;99751.06;5052772;28;20052;-55
2022/06/29 08:28:19;;;;;;;5.47;3.28;;;;;;;17.97;65.03;99746.66;5053029;28;20040;-55
2022/06/29 08:31:03;;;;;;;;;;;;;;;17.97;64.91;99744.03;5041527;28;20554;-55
2022/06/29 08:33:47;;;;;;;7.63;3.47;;;;;;;17.98;64.89;99750.19;5056689;28;19935;-57
2022/06/29 08:36:31;;;;;;;6.20;3.40;;;;;;;18.00;65.20;99748.38;5056390;28;20507;-55
2022/06/29 08:39:16;;;;;;;7.43;3.75;;;;;;;18.01;64.87;99740.50;5055908;28;20415;-57
2022/06/29 08:42:04;;;;;;;5.80;2.83;;;;;;;18.03;65.06;99738.72;5055709;28;20052;-55
2022/06/29 08:44:47;;;;;;;10.30;3.50;;;;;;;18.05;65.07;99738.66;5056011;28;20044;-55
2022/06/29 08:47:32;;;;;;;9.63;4.05;;;;;;;18.06;64.93;99736.00;5056290;28;20126;-56
2022/06/29 08:50:15;;;;;;;8.75;3.83;;;;;;;18.08;64.91;99736.84;5055539;28;20059;-55
2022/06/29 08:53:05;;;;;;;7.80;3.45;;;;;;;18.10;65.21;99739.47;5055713;28;20052;-56
2022/06/29 08:55:51;;;;;;;12.98;4.00;;;;;;;18.13;64.90;99741.13;5041071;28;20463;-58
2022/06/29 08:58:35;;;;;;;7.00;3.47;;;;;;;18.16;65.15;99746.31;5041137;28;20047;-55
2022/06/29 09:01:19;;;;;;;8.70;3.60;;;;;;;18.19;65.09;99749.75;5040283;28;20170;-57
2022/06/29 09:04:06;;;;;;;5.90;3.90;;;;;;;18.19;65.20;99739.25;5040266;28;20115;-57
2022/06/29 09:06:58;;;;;;;8.93;3.40;;;;;;;18.22;64.88;99740.94;5055804;28;20151;-57
2022/06/29 09:10:06;;;;;;;5.80;3.60;;;;;;;18.23;65.00;99746.19;5040770;28;20047;-57
2022/06/29 09:12:52;;;;;;;8.23;4.25;;;;;;;18.25;64.90;99747.00;5055442;28;20052;-55
2022/06/29 09:15:40;;;;;;;9.23;4.25;;;;;;;18.28;65.25;99750.47;5055706;28;20159;-55
2022/06/29 09:18:32;;;;;;;8.65;4.05;;;;;;;18.29;65.01;99745.19;5040729;28;20099;-57
2022/06/29 09:21:16;;;;;;;11.80;3.67;;;;;;;18.32;65.22;99747.75;5055295;28;20451;-57
2022/06/29 09:24:00;;;;;;;9.57;4.03;;;;;;;18.34;65.14;99747.69;5055217;28;20052;-55
2022/06/29 09:26:53;;;;;;;10.55;3.90;;;;;;;18.33;65.04;99741.59;5055545;28;20141;-56
2022/06/29 09:29:42;;;;;;;7.15;3.65;;;;;;;18.34;65.06;99742.47;5040547;28;20059;-55
2022/06/29 09:32:28;;;;;;;6.93;3.88;;;;;;;18.35;65.09;99738.94;5055381;28;20052;-56
2022/06/29 09:35:13;;;;;;;8.43;3.78;;;;;;;18.36;64.82;99745.91;5055069;28;20407;-57
2022/06/29 09:38:16;;;;;;;;;;;;;;;18.38;65.05;99738.88;5055669;28;20613;-56
2022/06/29 09:41:05;;;;;;;15.18;3.97;;;;;;;18.37;64.94;99738.00;5054605;28;20027;-56
2022/06/29 09:43:49;;;;;;;8.80;3.83;;;;;;;18.40;65.15;99742.34;5040190;28;20039;-57
2022/06/29 09:46:32;;;;;;;8.07;3.60;;;;;;;18.42;65.21;99740.56;5055175;28;20223;-57
2022/06/29 09:49:18;;;;;;;5.63;3.47;;;;;;;18.45;64.93;99740.47;5040307;28;20063;-57
2022/06/29 09:52:03;;;;;;;10.38;3.80;;;;;;;18.48;65.25;99744.81;5039655;28;20044;-57
2022/06/29 09:54:59;;;;;;;6.30;3.17;;;;;;;18.49;65.12;99747.38;5039851;28;20114;-57
2022/06/29 09:57:45;;;;;;;5.35;3.20;;;;;;;18.51;65.45;99750.84;5039757;28;20502;-57
2022/06/29 10:03:34;;;;;;;8.98;3.58;;;;;;;18.53;65.18;99754.31;5054756;28;20055;-57
2022/06/29 10:06:18;;;;;;;8.73;2.92;;;;;;;18.53;65.44;99754.31;5054808;28;20044;-56
2022/06/29 10:09:04;;;;;;;5.20;3.33;;;;;;;18.54;65.17;99747.28;5039221;28;20554;-57
2022/06/29 10:15:43;;;;;;;4.35;2.50;;;;;;;18.51;65.00;99740.34;5054641;28;20130;-55
2022/06/29 10:18:45;;;;;;;5.22;3.15;;;;;;;18.50;65.31;99738.63;5031286;28;20056;-55
2022/06/29 10:21:32;;;;;;;5.13;2.30;;;;;;;18.54;65.46;99745.53;5053806;28;20519;-55
2022/06/29 10:24:19;;;;;;;6.63;2.63;;;;;;;18.54;65.17;99744.66;5039345;28;20047;-55
2022/06/29 10:27:07;;;;;;;5.88;2.45;;;;;;;18.56;65.29;99735.00;5039307;28;20446;-56
2022/06/29 10:30:18;;;;;;;3.83;2.70;;;;;;;18.56;65.33;99738.50;5038853;28;20110;-57
2022/06/29 10:33:34;;;;;;;4.10;2.75;;;;;;;18.56;65.21;99728.00;5039360;28;20047;-56
2022/06/29 10:36:18;;;;;;;5.03;2.67;;;;;;;18.58;65.17;99730.56;5039185;28;20044;-56
2022/06/29 10:39:09;;;;;;;5.30;2.33;;;;;;;18.59;65.40;99728.84;5053909;28;20116;-56
2022/06/29 10:45:02;;;;;;;4.70;3.00;;;;;;;18.63;65.21;99733.09;5053466;28;20047;-55
2022/06/29 10:47:53;;;;;;;4.55;2.72;;;;;;;18.63;65.09;99720.84;5053350;28;20065;-57
2022/06/29 10:50:40;;;;;;;7.75;3.05;;;;;;;18.64;65.22;99724.31;5053691;28;20051;-56
2022/06/29 10:53:25;;;;;;;7.93;2.53;;;;;;;18.65;64.99;99710.31;5038961;28;20052;-57
2022/06/29 10:56:12;;;;;;;4.25;2.45;;;;;;;18.66;65.21;99712.03;5053699;28;20455;-55
2022/06/29 10:58:56;;;;;;;4.75;3.00;;;;;;;18.67;65.27;99700.63;5053281;28;20048;-55
2022/06/29 11:01:40;;;;;;;6.82;3.00;;;;;;;18.67;65.18;99698.91;5038252;28;20067;-56
2022/06/29 11:04:24;;;;;;;6.00;2.90;;;;;;;18.67;65.25;99704.16;5053878;28;20048;-55
2022/06/29 11:13:24;;;;;;;4.65;2.50;;;;;;;18.69;65.25;99701.47;5053216;28;20091;-55
2022/06/29 11:16:08;;;;;;;5.45;3.10;;;;;;;18.70;65.04;99697.94;5038621;28;20416;-56
2022/06/29 11:18:56;;;;;;;4.95;2.92;;;;;;;18.70;65.21;99693.53;5053471;28;20626;-56
2022/06/29 11:21:40;;;;;;;6.45;3.42;;;;;;;18.71;65.44;99687.41;5038616;28;20068;-56
2022/06/29 11:24:24;;;;;;;4.63;2.53;;;;;;;18.71;65.22;99695.28;5052835;28;20163;-57
2022/06/29 11:27:28;;;;;;;5.75;2.88;;;;;;;18.72;65.15;99681.25;5037971;28;20098;-56
2022/06/29 11:30:18;;;;;;;8.85;3.42;;;;;;;18.73;65.32;99684.75;5038624;28;20404;-56
2022/06/29 11:33:10;;;;;;;3.58;2.90;;;;;;;18.74;65.35;99672.50;5053158;28;20052;-57
2022/06/29 11:35:55;;;;;;;6.88;3.17;;;;;;;18.76;65.32;99678.56;5038524;28;20519;-56
2022/06/29 11:38:49;;;;;;;6.90;2.58;;;;;;;18.77;65.22;99675.91;5038002;28;20052;-55
2022/06/29 11:44:36;;;;;;;6.88;2.92;;;;;;;18.80;65.28;99669.72;5053136;28;20048;-55
2022/06/29 11:47:20;;;;;;;5.95;3.20;;;;;;;18.80;65.13;99665.31;5052910;28;20048;-55
2022/06/29 11:50:15;;;;;;;7.43;2.80;;;;;;;18.80;64.81;99659.22;5038260;28;20063;-56
2022/06/29 11:52:59;;;;;;;5.80;3.00;;;;;;;18.81;64.77;99658.34;5038369;28;20409;-55
2022/06/29 11:55:45;;;;;;;5.85;2.67;;;;;;;18.80;65.00;99657.44;5053361;28;20102;-55
2022/06/29 11:58:28;;;;;;;6.20;3.20;;;;;;;18.81;64.91;99667.06;5038138;28;20044;-55
2022/06/29 12:01:15;;;;;;;5.18;2.92;;;;;;;18.82;64.77;99660.06;5052704;28;20048;-55
2022/06/29 12:04:01;;;;;;;4.57;2.83;;;;;;;18.81;64.90;99650.47;5054004;28;20048;-56
2022/06/29 12:06:45;;;;;;;5.40;3.33;;;;;;;18.80;64.95;99648.72;5042297;28;20044;-56
2022/06/29 12:09:32;;;;;;;6.28;2.85;;;;;;;18.81;64.92;99647.84;5041937;28;20055;-55
2022/06/29 12:12:20;;;;;;;5.68;3.30;;;;;;;18.81;64.96;99647.84;5041442;28;20110;-56
2022/06/29 12:15:06;;;;;;;8.00;2.85;;;;;;;18.81;64.78;99645.22;5056366;28;20083;-55
2022/06/29 12:17:51;;;;;;;5.20;2.85;;;;;;;18.82;65.13;99644.31;5041350;28;20178;-56
2022/06/29 12:20:35;;;;;;;5.28;2.75;;;;;;;18.83;65.04;99639.00;5056106;28;20044;-58
2022/06/29 12:23:19;;;;;;;7.93;3.08;;;;;;;18.85;65.27;99639.84;5056816;28;20050;-57
2022/06/29 12:26:06;;;;;;;6.60;2.88;;;;;;;18.87;64.93;99639.78;5041903;28;20048;-56
2022/06/29 12:28:50;;;;;;;4.55;2.92;;;;;;;18.86;64.95;99636.31;5041277;28;20048;-56
2022/06/29 12:31:36;;;;;;;4.47;2.58;;;;;;;18.89;64.93;99639.78;5056532;28;20076;-57
2022/06/29 12:34:20;;;;;;;7.57;2.63;;;;;;;18.89;64.73;99639.78;5041412;28;20131;-56
2022/06/29 12:37:04;;;;;;;5.97;2.78;;;;;;;18.88;64.79;99633.63;5056327;28;20134;-56
2022/06/29 12:39:49;;;;;;;5.47;3.30;;;;;;;18.89;64.99;99629.25;5055743;28;20047;-57
2022/06/29 12:42:33;;;;;;;5.30;2.97;;;;;;;18.90;64.83;99625.75;5056325;28;20150;-57
2022/06/29 12:45:17;;;;;;;3.88;2.75;;;;;;;18.93;64.83;99630.88;5056228;28;20075;-56
2022/06/29 12:48:01;;;;;;;4.38;2.70;;;;;;;18.92;64.74;99632.66;5055776;28;20083;-57
2022/06/29 12:50:45;;;;;;;8.32;3.20;;;;;;;18.93;64.85;99630.88;5041282;28;20084;-56
2022/06/29 12:53:29;;;;;;;5.63;2.75;;;;;;;18.93;64.81;99637.03;5056092;28;20064;-56
2022/06/29 12:56:13;;;;;;;5.78;2.30;;;;;;;18.95;64.60;99634.38;5055856;28;20067;-57
2022/06/29 12:58:57;;;;;;;8.85;3.08;;;;;;;18.96;64.66;99625.59;5056175;28;20036;-56
2022/06/29 13:01:41;;;;;;;6.10;2.50;;;;;;;18.98;64.73;99623.81;5055565;28;20052;-57
2022/06/29 13:04:24;;;;;;;4.03;2.50;;;;;;;18.98;64.90;99624.69;5055644;28;20114;-55
2022/06/29 13:07:08;;;;;;;17.02;3.72;;;;;;;19.01;64.82;99623.72;5055734;28;20106;-55
2022/06/29 13:09:57;;;;;;;13.45;5.00;;;;;;;19.02;64.87;99620.22;5055465;28;20083;-55
2022/06/29 13:12:41;;;;;;;18.23;4.35;;;;;;;19.03;64.79;99619.31;5055447;28;20458;-55
2022/06/29 13:15:25;;;;;;;11.65;3.42;;;;;;;19.05;64.64;99614.88;5055252;28;20087;-55
2022/06/29 13:18:09;;;;;;;12.25;3.78;;;;;;;19.05;64.59;99614.88;5055465;28;20546;-55
2022/06/29 13:20:52;;;;;;;10.57;3.90;;;;;;;19.07;64.78;99612.19;5055422;28;20047;-55